Mazong Shan, China
Current Conditions -  °F | °C
As of 12:00 AM on Friday 31 Oct 2014 (Local Time) from ZWWW Reporting Station
Broken Clouds Broken Clouds  
Wind Chill: 34°   Ceiling: 4600
Heat Index: 37°   Visibility: 6mi
Dew Point: 21°   Wind: 4mph
Humidity: 52%   Direction: 200°SSW
Pressure: 30.5"   Gusts: NA
Location:  41.8°N, 97.03°E
Report Text: ZWWW 301600Z 20002MPS 150V240 9999 BKN046 03/M06 Q1033 NOSIG
Loading
Personal Weather Stations






























Interactive Weather Map
Tropical Storm Tracking
New forecast layout! Learn more

10-Day Weather Forecast

Advertisements
Track Severe Weather on mobile